Time;durP1;ratioP1;P1;durP2;ratioP2;P2;SDS_P1;SDS_P2;PMS_P1;PMS_P2;Temp;Humidity;BMP_temperature;BMP_pressure;BME280_temperature;BME280_humidity;BME280_pressure;Samples;Min_cycle;Max_cycle;Signal;HPM_P1;HPM_P2
2023/06/27 00:00:20;;;;;;;4.77;1.73;;;18.70;99.90;;;;;;5064371;28;20322;-78
2023/06/27 00:02:47;;;;;;;2.60;1.83;;;18.70;99.90;;;;;;5064464;28;20303;-78
2023/06/27 00:05:15;;;;;;;4.10;2.00;;;18.50;99.90;;;;;;5064010;28;20900;-78
2023/06/27 00:07:43;;;;;;;3.73;2.03;;;18.40;99.90;;;;;;5064506;28;20967;-78
2023/06/27 00:10:11;;;;;;;2.10;1.90;;;18.30;99.90;;;;;;5063553;28;20217;-80
2023/06/27 00:12:38;;;;;;;4.13;1.87;;;18.30;99.90;;;;;;5064109;28;20196;-78
2023/06/27 00:15:06;;;;;;;4.23;2.10;;;18.30;99.90;;;;;;5063749;28;20290;-78
2023/06/27 00:17:34;;;;;;;2.30;1.90;;;18.30;99.90;;;;;;5064988;28;20286;-77
2023/06/27 00:20:02;;;;;;;2.90;2.13;;;18.20;99.90;;;;;;5067758;28;20210;-77
2023/06/27 00:22:30;;;;;;;4.93;1.90;;;18.10;99.90;;;;;;5048637;28;20290;-77
2023/06/27 00:24:58;;;;;;;4.97;2.20;;;18.30;99.90;;;;;;5055388;28;20209;-78
2023/06/27 00:27:25;;;;;;;4.90;1.90;;;18.20;99.90;;;;;;5068335;28;20227;-77
2023/06/27 00:29:52;;;;;;;4.00;1.90;;;18.20;99.90;;;;;;5067994;28;20287;-77
2023/06/27 00:32:18;;;;;;;6.47;1.80;;;18.10;99.90;;;;;;5067342;28;20330;-78
2023/06/27 00:34:45;;;;;;;3.00;2.30;;;18.00;99.90;;;;;;5067295;28;20315;-77
2023/06/27 00:37:12;;;;;;;2.73;2.20;;;17.90;99.90;;;;;;5066264;28;20292;-76
2023/06/27 00:39:42;;;;;;;5.23;2.00;;;17.90;99.90;;;;;;5066898;28;20263;-76
2023/06/27 00:42:09;;;;;;;3.93;1.87;;;17.80;99.90;;;;;;5067214;28;20717;-77
2023/06/27 00:44:36;;;;;;;3.37;2.07;;;17.80;99.90;;;;;;5066944;28;20205;-76
2023/06/27 00:47:04;;;;;;;4.10;2.47;;;17.90;99.90;;;;;;5067207;28;20295;-77
2023/06/27 00:49:31;;;;;;;4.03;2.10;;;17.80;99.90;;;;;;5066554;28;20729;-77
2023/06/27 00:51:58;;;;;;;2.90;2.17;;;17.90;99.90;;;;;;5057823;28;20236;-76
2023/06/27 00:54:25;;;;;;;4.53;2.17;;;17.80;99.90;;;;;;5047012;28;20218;-77
2023/06/27 00:56:54;;;;;;;4.53;2.10;;;17.70;99.90;;;;;;5066601;28;20238;-77
2023/06/27 00:59:21;;;;;;;5.93;2.67;;;17.70;99.90;;;;;;5066984;28;20298;-76
2023/06/27 01:01:49;;;;;;;4.33;2.60;;;17.70;99.90;;;;;;5066984;28;20238;-80
2023/06/27 01:04:16;;;;;;;5.90;2.47;;;17.80;99.90;;;;;;5066871;28;20294;-76
2023/06/27 01:06:53;;;;;;;4.70;2.23;;;17.60;99.90;;;;;;5066696;28;20298;-76
2023/06/27 01:09:27;;;;;;;7.73;2.63;;;17.60;99.90;;;;;;5066793;28;20227;-77
2023/06/27 01:12:01;;;;;;;5.17;2.10;;;17.60;99.90;;;;;;5066632;28;20198;-77
2023/06/27 01:14:30;;;;;;;5.33;2.20;;;17.60;99.90;;;;;;5066381;28;20318;-78
2023/06/27 01:17:00;;;;;;;4.17;2.27;;;17.50;99.90;;;;;;5067115;28;20211;-77
2023/06/27 01:19:30;;;;;;;9.33;2.30;;;17.50;99.90;;;;;;5066669;28;20221;-78
2023/06/27 01:22:02;;;;;;;7.97;2.40;;;17.70;99.90;;;;;;5066361;28;20276;-78
2023/06/27 01:24:31;;;;;;;6.23;2.70;;;17.70;99.90;;;;;;5066642;28;20203;-78
2023/06/27 01:27:00;;;;;;;5.33;2.13;;;17.60;99.90;;;;;;5046569;28;20212;-78
2023/06/27 01:29:29;;;;;;;6.70;2.30;;;17.40;99.90;;;;;;5053391;28;20199;-78
2023/06/27 01:32:01;;;;;;;3.60;2.13;;;17.30;99.90;;;;;;5066402;28;20203;-77
2023/06/27 01:34:33;;;;;;;5.10;2.27;;;17.40;99.90;;;;;;5066078;28;20214;-78
2023/06/27 01:37:06;;;;;;;7.37;2.57;;;17.20;99.90;;;;;;5066771;28;20211;-78
2023/06/27 01:39:41;;;;;;;5.90;2.40;;;17.10;99.90;;;;;;5066376;28;20250;-78
2023/06/27 01:42:15;;;;;;;6.70;2.50;;;17.10;99.90;;;;;;5066561;28;20234;-77
2023/06/27 01:44:46;;;;;;;3.40;2.43;;;17.00;99.90;;;;;;5066338;28;20274;-78
2023/06/27 01:47:14;;;;;;;6.73;2.60;;;17.20;99.90;;;;;;5065937;28;20196;-76
2023/06/27 01:49:41;;;;;;;4.80;2.50;;;17.00;99.90;;;;;;5066227;28;20296;-76
2023/06/27 01:52:12;;;;;;;4.47;2.70;;;16.80;99.90;;;;;;5066079;28;20215;-76
2023/06/27 01:54:40;;;;;;;4.90;2.40;;;16.90;99.90;;;;;;5049942;28;20284;-76
2023/06/27 01:57:08;;;;;;;4.63;2.70;;;17.00;99.90;;;;;;5054381;28;20283;-76
2023/06/27 01:59:35;;;;;;;7.30;3.20;;;16.90;99.90;;;;;;5065581;28;20681;-76
2023/06/27 02:02:02;;;;;;;7.00;3.40;;;16.90;99.90;;;;;;5065647;28;20257;-76
2023/06/27 02:04:29;;;;;;;6.67;2.53;;;17.00;99.90;;;;;;5065391;28;20480;-76
2023/06/27 02:06:56;;;;;;;5.10;2.50;;;17.00;99.90;;;;;;5065236;28;21267;-74
2023/06/27 02:09:23;;;;;;;8.73;3.07;;;16.90;99.90;;;;;;5065035;28;20242;-74
2023/06/27 02:11:51;;;;;;;6.33;3.17;;;16.60;99.90;;;;;;5065545;28;20211;-74
2023/06/27 02:14:18;;;;;;;6.43;2.57;;;16.50;99.90;;;;;;5065583;28;20211;-74
2023/06/27 02:16:45;;;;;;;5.97;3.03;;;16.40;99.90;;;;;;5065828;28;20211;-77
2023/06/27 02:19:12;;;;;;;5.73;2.50;;;16.40;99.90;;;;;;5055586;28;20315;-77
2023/06/27 02:21:39;;;;;;;6.77;2.50;;;16.40;99.90;;;;;;5064262;28;20899;-77
2023/06/27 02:24:06;;;;;;;3.83;2.63;;;16.40;99.90;;;;;;5065715;28;20307;-76
2023/06/27 02:26:33;;;;;;;12.03;3.63;;;16.50;99.90;;;;;;5065224;28;20207;-77
2023/06/27 02:29:01;;;;;;;5.90;2.60;;;16.40;99.90;;;;;;5065523;28;20219;-76
2023/06/27 02:31:28;;;;;;;6.33;2.70;;;16.40;99.90;;;;;;5065217;28;20264;-77
2023/06/27 02:33:55;;;;;;;4.90;2.70;;;16.20;99.90;;;;;;5063304;28;20904;-78
2023/06/27 02:36:22;;;;;;;9.20;2.67;;;16.20;99.90;;;;;;5062898;28;20810;-77
2023/06/27 02:38:49;;;;;;;5.77;2.83;;;16.00;99.90;;;;;;5063815;28;20211;-76
2023/06/27 02:41:16;;;;;;;9.97;2.80;;;16.00;99.90;;;;;;5062473;28;20239;-77
2023/06/27 02:43:43;;;;;;;6.83;2.83;;;16.00;99.90;;;;;;5063746;28;20587;-77
2023/06/27 02:46:11;;;;;;;6.73;2.77;;;16.10;99.90;;;;;;5063952;28;20300;-77
2023/06/27 02:48:38;;;;;;;6.17;3.10;;;16.10;99.90;;;;;;5063689;28;20215;-77
2023/06/27 02:51:05;;;;;;;4.63;2.97;;;16.10;99.90;;;;;;5063675;28;20295;-76
2023/06/27 02:53:32;;;;;;;8.17;3.20;;;16.10;99.90;;;;;;5063559;28;20208;-76
2023/06/27 02:56:02;;;;;;;7.43;2.80;;;16.00;99.90;;;;;;5063453;28;20298;-76
2023/06/27 02:58:29;;;;;;;6.23;2.90;;;16.00;99.90;;;;;;5063223;28;20228;-76
2023/06/27 03:00:58;;;;;;;5.17;2.63;;;16.10;99.90;;;;;;5062679;28;20318;-76
2023/06/27 03:03:27;;;;;;;7.07;3.10;;;16.00;99.90;;;;;;5064405;28;20231;-77
2023/06/27 03:05:54;;;;;;;9.13;3.27;;;16.00;99.90;;;;;;5064380;28;20211;-76
2023/06/27 03:08:20;;;;;;;7.77;3.00;;;15.90;99.90;;;;;;5065259;28;20663;-76
2023/06/27 03:10:47;;;;;;;6.10;2.93;;;15.80;99.90;;;;;;5064661;28;20767;-76
2023/06/27 03:13:14;;;;;;;5.43;2.73;;;16.00;99.90;;;;;;5064810;28;20301;-76
2023/06/27 03:15:41;;;;;;;9.30;3.07;;;15.90;99.90;;;;;;5065146;28;20223;-76
2023/06/27 03:18:08;;;;;;;8.50;3.00;;;15.90;99.90;;;;;;5064972;28;20303;-76
2023/06/27 03:20:36;;;;;;;8.37;2.80;;;15.80;99.90;;;;;;5064898;28;20222;-76
2023/06/27 03:23:03;;;;;;;5.60;2.97;;;15.90;99.90;;;;;;5064490;28;20792;-77
2023/06/27 03:25:30;;;;;;;6.00;2.83;;;15.90;99.90;;;;;;5063982;28;20720;-76
2023/06/27 03:27:57;;;;;;;8.33;2.90;;;15.90;99.90;;;;;;5064467;28;20207;-76
2023/06/27 03:30:24;;;;;;;10.47;3.30;;;15.90;99.90;;;;;;5048533;28;20196;-76
2023/06/27 03:32:51;;;;;;;8.40;3.20;;;15.70;99.90;;;;;;5044921;28;20303;-77
2023/06/27 03:35:18;;;;;;;11.37;3.10;;;15.70;99.90;;;;;;5043967;28;20281;-76
2023/06/27 03:37:46;;;;;;;11.37;2.93;;;15.60;99.90;;;;;;5057836;28;20294;-76
2023/06/27 03:40:13;;;;;;;9.03;3.10;;;15.70;99.90;;;;;;5064118;28;20735;-76
2023/06/27 03:42:40;;;;;;;10.07;3.53;;;15.80;99.90;;;;;;5064506;28;20245;-76
2023/06/27 03:45:08;;;;;;;12.47;4.07;;;15.90;99.90;;;;;;5064235;28;20199;-76
2023/06/27 03:47:35;;;;;;;5.90;2.70;;;15.70;99.90;;;;;;5064294;28;20264;-76
2023/06/27 03:50:02;;;;;;;7.87;3.73;;;15.70;99.90;;;;;;5064432;28;20381;-76
2023/06/27 03:52:29;;;;;;;5.30;2.83;;;15.70;99.90;;;;;;5066560;28;20239;-76
2023/06/27 03:54:57;;;;;;;7.17;2.93;;;15.60;99.90;;;;;;5068107;28;20252;-76
2023/06/27 03:57:24;;;;;;;4.93;3.07;;;15.70;99.90;;;;;;5068160;28;20207;-76
2023/06/27 03:59:51;;;;;;;6.13;3.00;;;15.70;99.90;;;;;;5068401;28;20222;-76
2023/06/27 04:02:18;;;;;;;9.50;3.37;;;15.90;99.90;;;;;;5068366;28;20262;-76
2023/06/27 04:04:45;;;;;;;9.73;3.53;;;15.70;99.90;;;;;;5068197;28;20294;-77
2023/06/27 04:07:13;;;;;;;5.00;2.70;;;15.60;99.90;;;;;;5067900;28;20303;-76
2023/06/27 04:09:40;;;;;;;9.27;3.20;;;15.60;99.90;;;;;;5067456;28;20212;-76
2023/06/27 04:12:09;;;;;;;10.43;3.47;;;15.60;99.90;;;;;;5067315;28;20303;-76
2023/06/27 04:14:36;;;;;;;9.63;3.40;;;15.60;99.90;;;;;;5067655;28;20704;-77
2023/06/27 04:17:03;;;;;;;9.83;3.53;;;15.60;99.90;;;;;;5068152;28;20215;-77
2023/06/27 04:19:30;;;;;;;9.03;3.23;;;15.80;99.90;;;;;;5067892;28;20381;-77
2023/06/27 04:21:57;;;;;;;7.17;3.63;;;16.00;99.90;;;;;;5067162;28;20867;-76
2023/06/27 04:24:24;;;;;;;7.47;3.13;;;16.00;99.90;;;;;;5067654;28;20213;-76
2023/06/27 04:26:51;;;;;;;8.13;3.37;;;16.00;99.90;;;;;;5067982;28;20306;-76
2023/06/27 04:29:19;;;;;;;8.93;3.27;;;15.90;99.90;;;;;;5067593;28;20203;-76
2023/06/27 04:31:46;;;;;;;10.63;2.93;;;16.00;99.90;;;;;;5067740;28;20218;-77
2023/06/27 04:34:13;;;;;;;6.90;2.83;;;16.00;99.90;;;;;;5067434;28;20301;-77
2023/06/27 04:36:41;;;;;;;6.30;2.70;;;15.80;99.90;;;;;;5061199;28;20255;-76
2023/06/27 04:39:08;;;;;;;6.47;3.03;;;15.70;99.90;;;;;;5047447;28;20223;-76
2023/06/27 04:41:35;;;;;;;8.67;3.20;;;15.80;99.90;;;;;;5047608;28;20231;-77
2023/06/27 04:44:02;;;;;;;9.40;3.67;;;15.90;99.90;;;;;;5047387;28;20214;-77
2023/06/27 04:46:30;;;;;;;10.47;3.50;;;15.70;99.90;;;;;;5047283;28;20216;-76
2023/06/27 04:48:57;;;;;;;12.90;3.40;;;15.70;99.90;;;;;;5047297;28;20204;-76
2023/06/27 04:51:25;;;;;;;11.33;3.57;;;15.70;99.90;;;;;;5046991;28;20933;-76
2023/06/27 04:53:52;;;;;;;7.83;3.23;;;15.70;99.90;;;;;;5047171;28;20217;-76
2023/06/27 04:56:18;;;;;;;5.97;2.97;;;15.70;99.90;;;;;;5061739;28;20207;-76
2023/06/27 04:58:46;;;;;;;7.13;2.70;;;15.80;99.90;;;;;;5062999;28;20292;-76
2023/06/27 05:01:13;;;;;;;11.83;3.30;;;15.80;99.90;;;;;;5066012;28;20724;-76
2023/06/27 05:03:41;;;;;;;8.40;2.93;;;16.00;99.90;;;;;;5066112;28;20321;-76
2023/06/27 05:06:08;;;;;;;6.77;2.70;;;16.00;99.90;;;;;;5067155;28;21048;-77
2023/06/27 05:08:37;;;;;;;8.17;3.50;;;15.90;99.90;;;;;;5067256;28;20294;-76
2023/06/27 05:11:05;;;;;;;9.83;3.10;;;15.90;99.90;;;;;;5066980;28;20211;-76
2023/06/27 05:13:31;;;;;;;11.67;3.50;;;16.00;99.90;;;;;;5067021;28;20214;-76
2023/06/27 05:15:59;;;;;;;11.70;3.87;;;16.00;99.90;;;;;;5066802;28;20264;-76
2023/06/27 05:18:26;;;;;;;5.13;2.60;;;16.10;99.90;;;;;;5065720;28;20206;-76
2023/06/27 05:20:55;;;;;;;8.40;2.77;;;16.00;99.90;;;;;;5066090;28;20326;-77
2023/06/27 05:23:22;;;;;;;5.70;2.43;;;16.00;99.90;;;;;;5066479;28;20335;-76
2023/06/27 05:25:49;;;;;;;13.13;3.40;;;16.00;99.90;;;;;;5066217;28;20222;-76
2023/06/27 05:28:16;;;;;;;6.37;2.90;;;16.00;99.90;;;;;;5066250;28;20207;-76
2023/06/27 05:30:44;;;;;;;8.00;2.87;;;16.10;99.90;;;;;;5066050;28;20300;-76
2023/06/27 05:33:10;;;;;;;11.40;3.40;;;16.10;99.90;;;;;;5066275;28;20211;-77
2023/06/27 05:35:37;;;;;;;9.17;3.30;;;16.20;99.90;;;;;;5066208;28;20302;-76
2023/06/27 05:38:06;;;;;;;7.77;3.07;;;16.20;99.90;;;;;;5066533;28;20208;-76
2023/06/27 05:40:33;;;;;;;11.03;2.93;;;16.20;99.90;;;;;;5066233;28;20531;-76
2023/06/27 05:43:00;;;;;;;7.70;2.60;;;16.20;99.90;;;;;;5066323;28;20330;-76
2023/06/27 05:45:27;;;;;;;9.30;3.20;;;16.20;99.90;;;;;;5066371;28;20364;-76
2023/06/27 06:02:11;;;;;;;7.77;2.87;;;16.40;99.90;;;;;;5065750;28;20275;-76
2023/06/27 06:08:27;;;;;;;11.63;3.00;;;16.40;99.90;;;;;;5065683;28;20218;-76
2023/06/27 06:21:01;;;;;;;6.60;2.70;;;16.50;99.90;;;;;;5065179;28;20183;-76
2023/06/27 06:23:29;;;;;;;7.93;2.77;;;16.60;99.90;;;;;;5065184;28;20718;-76
2023/06/27 06:25:56;;;;;;;9.93;2.43;;;16.70;99.90;;;;;;5065350;28;20239;-76
2023/06/27 06:28:23;;;;;;;8.03;2.87;;;16.80;99.90;;;;;;5065340;28;20290;-76
2023/06/27 06:30:50;;;;;;;10.33;2.60;;;16.80;99.90;;;;;;5065262;28;20211;-76
2023/06/27 06:33:17;;;;;;;6.53;2.60;;;16.80;99.90;;;;;;5064634;28;20206;-76
2023/06/27 06:35:44;;;;;;;5.97;2.90;;;16.70;99.90;;;;;;5065071;28;20314;-76
2023/06/27 06:38:10;;;;;;;5.23;2.43;;;16.80;99.90;;;;;;5046087;28;20218;-76
2023/06/27 06:40:39;;;;;;;9.90;2.43;;;16.90;99.90;;;;;;5044945;28;20714;-76
2023/06/27 06:43:06;;;;;;;6.20;2.40;;;17.00;99.90;;;;;;5045631;28;20319;-76
2023/06/27 06:45:33;;;;;;;7.13;2.27;;;17.10;99.90;;;;;;5045413;28;20533;-76
2023/06/27 06:48:00;;;;;;;8.83;2.60;;;17.30;99.90;;;;;;5045632;28;20344;-76
2023/06/27 06:50:31;;;;;;;3.93;1.83;;;17.40;99.90;;;;;;5044981;28;20301;-76
2023/06/27 06:52:57;;;;;;;9.73;2.80;;;17.40;99.90;;;;;;5045169;28;20868;-76
2023/06/27 06:55:24;;;;;;;11.17;2.63;;;17.20;99.90;;;;;;5052420;28;20298;-76
2023/06/27 06:57:52;;;;;;;7.50;1.90;;;17.10;99.90;;;;;;5065321;28;20905;-76
2023/06/27 07:00:20;;;;;;;6.23;2.47;;;17.10;99.90;;;;;;5065034;28;20230;-76
2023/06/27 07:02:47;;;;;;;6.17;2.57;;;17.20;99.90;;;;;;5064728;28;20342;-76
2023/06/27 07:05:14;;;;;;;6.57;2.27;;;17.30;99.90;;;;;;5064746;28;20294;-76
2023/06/27 07:07:41;;;;;;;10.03;2.23;;;17.40;99.90;;;;;;5064406;28;20219;-76
2023/06/27 07:10:09;;;;;;;10.27;2.40;;;17.40;99.90;;;;;;5063860;28;20302;-76
2023/06/27 07:12:36;;;;;;;8.17;1.90;;;17.40;99.90;;;;;;5064543;28;20592;-76
2023/06/27 07:15:05;;;;;;;7.30;2.40;;;17.50;99.90;;;;;;5064772;28;20691;-76
2023/06/27 07:17:32;;;;;;;4.77;1.83;;;17.70;99.90;;;;;;5065241;28;20289;-76
2023/06/27 07:20:00;;;;;;;5.53;1.90;;;17.90;99.90;;;;;;5064716;28;20298;-76
2023/06/27 07:22:26;;;;;;;6.30;1.83;;;18.00;99.90;;;;;;5064718;28;20215;-76
2023/06/27 07:24:54;;;;;;;4.07;1.90;;;17.90;99.90;;;;;;5065235;28;20298;-76
2023/06/27 07:27:21;;;;;;;5.13;2.20;;;18.00;99.90;;;;;;5067191;28;20215;-76
2023/06/27 07:29:47;;;;;;;6.37;3.40;;;18.00;99.90;;;;;;5068645;28;20905;-76
2023/06/27 07:32:16;;;;;;;4.17;1.90;;;18.00;99.90;;;;;;5068946;28;20318;-76
2023/06/27 07:34:43;;;;;;;4.53;1.80;;;18.10;99.90;;;;;;5069094;28;20299;-76
2023/06/27 07:37:09;;;;;;;5.97;1.80;;;18.10;99.90;;;;;;5068970;28;20243;-76
2023/06/27 07:39:37;;;;;;;6.30;2.00;;;18.20;99.90;;;;;;5068694;28;20318;-76
2023/06/27 07:42:04;;;;;;;7.40;2.10;;;18.20;99.90;;;;;;5068179;28;20192;-77
2023/06/27 07:44:31;;;;;;;3.73;1.77;;;18.10;99.90;;;;;;5068331;28;20238;-76
2023/06/27 07:46:58;;;;;;;7.73;2.00;;;17.90;99.90;;;;;;5068745;28;20749;-76
2023/06/27 07:49:26;;;;;;;3.90;1.70;;;17.80;99.90;;;;;;5067946;28;20657;-77
2023/06/27 07:51:53;;;;;;;6.47;2.53;;;17.60;99.90;;;;;;5068500;28;20234;-76
2023/06/27 07:54:21;;;;;;;2.73;1.83;;;17.70;99.90;;;;;;5068306;28;20681;-77
2023/06/27 07:56:48;;;;;;;6.77;1.83;;;17.90;99.90;;;;;;5068486;28;20215;-76
2023/06/27 07:59:14;;;;;;;5.27;1.87;;;18.10;99.90;;;;;;5067802;28;20235;-77
2023/06/27 08:01:41;;;;;;;6.03;2.57;;;18.30;99.90;;;;;;5068028;28;20519;-76
2023/06/27 08:04:08;;;;;;;5.20;1.70;;;18.50;99.90;;;;;;5067820;28;20671;-76
2023/06/27 08:06:37;;;;;;;3.40;1.60;;;18.40;99.90;;;;;;5067826;28;20302;-76
2023/06/27 08:09:04;;;;;;;5.83;1.67;;;18.30;99.90;;;;;;5067909;28;20327;-76
2023/06/27 08:11:30;;;;;;;5.37;1.90;;;18.30;99.90;;;;;;5067934;28;20254;-76
2023/06/27 08:13:57;;;;;;;6.67;1.90;;;18.30;99.90;;;;;;5067542;28;20293;-76
2023/06/27 08:16:24;;;;;;;4.23;1.80;;;18.30;99.90;;;;;;5067696;28;20247;-76
2023/06/27 08:18:51;;;;;;;8.30;2.13;;;18.30;99.90;;;;;;5067508;28;20673;-76
2023/06/27 08:21:18;;;;;;;6.20;1.80;;;18.50;99.90;;;;;;5067316;28;20265;-76
2023/06/27 08:23:46;;;;;;;3.67;2.07;;;18.60;99.90;;;;;;5067914;28;20671;-76
2023/06/27 08:26:15;;;;;;;5.73;1.70;;;18.70;99.90;;;;;;5067551;28;20298;-76
2023/06/27 08:28:42;;;;;;;2.77;1.40;;;18.90;99.90;;;;;;5067117;28;20207;-75
2023/06/27 08:31:11;;;;;;;2.83;1.43;;;18.70;99.90;;;;;;5067559;28;20234;-76
2023/06/27 08:33:39;;;;;;;3.33;1.47;;;18.70;99.90;;;;;;5067886;28;20203;-75
2023/06/27 08:36:06;;;;;;;1.73;1.37;;;18.70;99.90;;;;;;5065698;28;20297;-75
2023/06/27 08:38:33;;;;;;;1.97;1.50;;;18.80;99.90;;;;;;5045970;28;20331;-76
2023/06/27 08:41:03;;;;;;;6.43;1.60;;;18.80;99.90;;;;;;5047281;28;20700;-76
2023/06/27 08:43:30;;;;;;;3.10;1.63;;;19.00;99.90;;;;;;5047847;28;20271;-76
2023/06/27 08:45:57;;;;;;;3.60;1.50;;;19.00;99.90;;;;;;5047153;28;20664;-75
2023/06/27 08:48:26;;;;;;;2.67;1.20;;;18.90;99.90;;;;;;5047037;28;20214;-76
2023/06/27 08:50:54;;;;;;;2.90;2.00;;;19.00;99.90;;;;;;5047153;28;20309;-75
2023/06/27 08:53:23;;;;;;;4.57;2.57;;;19.00;99.90;;;;;;5047014;28;20243;-76
2023/06/27 08:55:56;;;;;;;2.10;1.30;;;19.00;99.90;;;;;;5057454;28;20331;-76
2023/06/27 08:58:35;;;;;;;3.23;1.63;;;19.20;99.90;;;;;;5067041;28;20242;-76
2023/06/27 09:01:03;;;;;;;2.13;1.20;;;19.40;99.90;;;;;;5067244;28;20286;-76
2023/06/27 09:03:30;;;;;;;3.47;1.53;;;19.40;99.90;;;;;;5066857;28;20235;-76
2023/06/27 09:05:58;;;;;;;2.73;1.73;;;19.30;99.90;;;;;;5066277;28;20302;-76
2023/06/27 09:08:25;;;;;;;2.43;1.30;;;19.20;99.90;;;;;;5046902;28;20207;-75
2023/06/27 09:10:52;;;;;;;6.13;1.90;;;19.30;99.90;;;;;;5047261;28;20294;-76
2023/06/27 09:13:20;;;;;;;1.30;1.10;;;19.30;99.90;;;;;;5046667;28;20261;-76
2023/06/27 09:15:48;;;;;;;4.00;1.37;;;19.30;99.90;;;;;;5046753;28;20227;-76
2023/06/27 09:18:15;;;;;;;2.70;1.43;;;19.20;99.90;;;;;;5046753;28;20331;-76
2023/06/27 09:20:44;;;;;;;2.30;1.30;;;19.20;99.90;;;;;;5046679;28;20308;-76
2023/06/27 09:23:12;;;;;;;2.27;1.27;;;19.20;99.90;;;;;;5063270;28;20241;-76
2023/06/27 09:25:39;;;;;;;3.17;1.63;;;19.30;99.90;;;;;;5066370;28;20650;-76
2023/06/27 09:28:16;;;;;;;2.70;1.20;;;19.00;99.90;;;;;;5066566;28;20677;-76
2023/06/27 09:30:54;;;;;;;3.80;1.60;;;19.00;99.90;;;;;;5066504;28;20215;-76
2023/06/27 09:33:20;;;;;;;2.03;1.33;;;19.20;99.90;;;;;;5066567;28;20290;-76
2023/06/27 09:35:48;;;;;;;5.27;1.37;;;19.20;99.90;;;;;;5066059;28;21014;-76
2023/06/27 09:38:14;;;;;;;3.67;1.40;;;19.30;99.90;;;;;;5066203;28;20214;-76
2023/06/27 09:40:42;;;;;;;2.60;1.47;;;19.50;99.90;;;;;;5066237;28;20322;-76
2023/06/27 09:43:11;;;;;;;4.97;1.77;;;19.70;99.90;;;;;;5066218;28;20282;-76
2023/06/27 09:45:38;;;;;;;2.90;1.60;;;19.90;99.90;;;;;;5066085;28;20207;-76
2023/06/27 09:48:10;;;;;;;1.93;1.20;;;20.10;99.90;;;;;;5066395;28;20204;-76
2023/06/27 09:50:38;;;;;;;2.17;1.47;;;20.10;99.90;;;;;;5065930;28;20195;-76
2023/06/27 09:53:05;;;;;;;4.03;1.30;;;20.00;99.90;;;;;;5066503;28;20549;-76
2023/06/27 09:55:32;;;;;;;4.90;1.40;;;19.70;99.90;;;;;;5066075;28;21059;-76
2023/06/27 09:58:00;;;;;;;2.37;1.50;;;19.80;99.90;;;;;;5065953;28;20228;-76
2023/06/27 10:00:28;;;;;;;1.90;1.27;;;19.90;99.90;;;;;;5065489;28;20211;-76
2023/06/27 10:02:55;;;;;;;4.20;1.33;;;20.20;99.90;;;;;;5065893;28;20207;-76
2023/06/27 10:05:24;;;;;;;4.57;1.47;;;20.20;99.90;;;;;;5065843;28;20235;-76
2023/06/27 10:07:53;;;;;;;2.47;1.23;;;19.70;99.90;;;;;;5049149;28;20314;-76
2023/06/27 10:10:21;;;;;;;2.93;1.70;;;19.10;99.90;;;;;;5045579;28;20207;-76
2023/06/27 10:12:49;;;;;;;3.00;1.40;;;18.90;99.90;;;;;;5045399;28;20208;-76
2023/06/27 10:15:17;;;;;;;3.10;1.20;;;18.90;99.90;;;;;;5044868;28;20231;-76
2023/06/27 10:17:46;;;;;;;4.67;3.27;;;18.80;99.90;;;;;;5045689;28;20208;-76
2023/06/27 10:20:14;;;;;;;2.73;1.73;;;18.80;99.90;;;;;;5045244;28;20212;-76
2023/06/27 10:22:44;;;;;;;2.10;1.60;;;18.80;99.90;;;;;;5045486;28;20608;-76
2023/06/27 10:25:12;;;;;;;2.73;1.17;;;19.10;99.90;;;;;;5045539;28;20231;-76
2023/06/27 10:27:42;;;;;;;2.27;1.20;;;19.40;99.90;;;;;;5045568;28;20311;-76
2023/06/27 10:30:23;;;;;;;4.37;1.53;;;19.60;99.90;;;;;;5058670;28;20234;-76
2023/06/27 10:32:51;;;;;;;3.17;1.47;;;19.10;99.90;;;;;;5065323;28;20195;-76
2023/06/27 10:35:25;;;;;;;2.27;1.10;;;17.50;99.90;;;;;;5065253;28;20215;-77
2023/06/27 10:38:08;;;;;;;2.63;0.90;;;16.30;99.90;;;;;;5048707;28;20254;-77
2023/06/27 10:41:09;;;;;;;1.40;0.83;;;15.80;99.90;;;;;;5045207;28;20322;-77
2023/06/27 10:43:37;;;;;;;1.40;1.30;;;15.30;99.90;;;;;;5044989;28;20994;-77
2023/06/27 10:46:08;;;;;;;2.20;1.40;;;15.20;99.90;;;;;;5045635;28;20210;-76
2023/06/27 10:48:36;;;;;;;1.30;1.20;;;15.20;99.90;;;;;;5045409;28;20310;-77
2023/06/27 10:51:10;;;;;;;2.30;1.77;;;15.20;99.90;;;;;;5045084;28;20258;-76
2023/06/27 10:53:43;;;;;;;1.70;1.33;;;15.30;99.90;;;;;;5045560;28;20192;-76
2023/06/27 10:56:17;;;;;;;1.77;1.67;;;15.40;99.90;;;;;;5058253;28;20212;-76
2023/06/27 10:58:45;;;;;;;1.77;1.37;;;15.50;99.90;;;;;;5065025;28;20231;-76
2023/06/27 11:01:12;;;;;;;4.07;1.63;;;15.60;99.90;;;;;;5064676;28;20211;-77
2023/06/27 11:03:42;;;;;;;1.07;1.00;;;15.90;99.90;;;;;;5064992;28;20203;-76
2023/06/27 11:06:09;;;;;;;2.80;1.27;;;16.20;99.90;;;;;;5064850;28;20207;-76
2023/06/27 11:08:36;;;;;;;1.07;1.00;;;16.60;99.90;;;;;;5064996;28;20305;-76
2023/06/27 11:11:06;;;;;;;1.27;1.10;;;17.00;99.90;;;;;;5064895;28;20246;-76
2023/06/27 11:13:36;;;;;;;1.30;0.90;;;17.30;99.90;;;;;;5064398;28;20696;-76
2023/06/27 11:16:04;;;;;;;0.90;0.90;;;17.60;99.90;;;;;;5065015;28;20282;-76
2023/06/27 11:18:31;;;;;;;1.27;1.17;;;17.80;99.90;;;;;;5065080;28;20214;-75
2023/06/27 11:20:59;;;;;;;2.40;1.20;;;18.10;99.90;;;;;;5065020;28;20306;-75
2023/06/27 11:23:26;;;;;;;1.73;1.50;;;18.50;99.90;;;;;;5064667;28;20207;-75
2023/06/27 11:25:54;;;;;;;2.90;1.17;;;18.80;99.90;;;;;;5064832;28;20337;-76
2023/06/27 11:28:24;;;;;;;1.97;1.20;;;19.20;99.90;;;;;;5065123;28;20290;-75
2023/06/27 11:30:57;;;;;;;1.00;1.00;;;19.40;99.90;;;;;;5064931;28;20737;-75
2023/06/27 11:33:25;;;;;;;7.20;3.03;;;19.70;99.90;;;;;;5064898;28;20261;-75
2023/06/27 11:35:52;;;;;;;4.10;1.90;;;19.90;99.90;;;;;;5064647;28;20211;-76
2023/06/27 11:38:19;;;;;;;1.73;1.00;;;20.00;99.90;;;;;;5064585;28;20688;-75
2023/06/27 11:40:50;;;;;;;0.90;0.90;;;20.00;99.90;;;;;;5064384;28;20369;-76
2023/06/27 11:43:18;;;;;;;2.00;1.10;;;20.00;99.90;;;;;;5064604;28;20229;-76
2023/06/27 11:45:50;;;;;;;2.53;1.13;;;20.00;99.90;;;;;;5064360;28;20262;-75
2023/06/27 11:48:17;;;;;;;0.80;0.70;;;20.00;99.90;;;;;;5064400;28;20298;-76
2023/06/27 11:50:55;;;;;;;2.53;0.80;;;19.90;99.90;;;;;;5064867;28;20218;-76
2023/06/27 11:53:24;;;;;;;1.93;1.20;;;20.10;99.90;;;;;;5064164;28;20215;-76
2023/06/27 11:55:51;;;;;;;1.03;0.90;;;20.50;99.90;;;;;;5064901;28;20215;-75
2023/06/27 11:58:26;;;;;;;1.47;0.93;;;20.80;99.90;;;;;;5064195;28;20777;-75
2023/06/27 12:00:54;;;;;;;0.90;0.90;;;20.90;99.90;;;;;;5064551;28;20211;-76
2023/06/27 12:03:26;;;;;;;2.33;0.93;;;21.00;99.90;;;;;;5064257;28;20306;-77
2023/06/27 12:05:55;;;;;;;1.43;1.00;;;21.20;99.90;;;;;;5064595;28;20227;-76
2023/06/27 12:08:23;;;;;;;1.10;1.10;;;21.40;99.90;;;;;;5064095;28;20298;-76
2023/06/27 12:10:52;;;;;;;1.13;1.00;;;21.60;99.90;;;;;;5064487;28;20207;-76
2023/06/27 12:13:19;;;;;;;2.37;1.00;;;21.40;99.90;;;;;;5066433;28;20230;-76
2023/06/27 12:15:47;;;;;;;1.27;0.90;;;20.90;99.90;;;;;;5068181;28;20211;-76
2023/06/27 12:18:24;;;;;;;1.33;1.13;;;20.40;99.90;;;;;;5067692;28;20215;-77
2023/06/27 12:20:52;;;;;;;1.43;0.93;;;20.20;99.90;;;;;;5067603;28;20657;-77
2023/06/27 12:23:19;;;;;;;1.77;0.70;;;19.90;99.90;;;;;;5067524;28;20211;-76
2023/06/27 12:25:47;;;;;;;1.70;1.07;;;19.50;99.90;;;;;;5067476;28;20321;-76
2023/06/27 12:28:14;;;;;;;1.10;0.97;;;19.20;99.90;;;;;;5067599;28;20314;-76
2023/06/27 12:30:42;;;;;;;2.40;1.10;;;19.30;99.90;;;;;;5049908;28;20294;-77
2023/06/27 12:33:09;;;;;;;1.83;0.90;;;19.10;99.90;;;;;;5047502;28;20211;-77
2023/06/27 12:35:39;;;;;;;2.63;0.83;;;19.00;99.90;;;;;;5047440;28;20212;-77
2023/06/27 12:38:06;;;;;;;0.97;0.90;;;18.90;99.90;;;;;;5065413;28;20302;-77
2023/06/27 12:40:33;;;;;;;0.93;0.80;;;18.90;99.90;;;;;;5067192;28;20243;-77
2023/06/27 12:43:00;;;;;;;0.83;0.83;;;18.70;99.90;;;;;;5067003;28;20318;-77
2023/06/27 12:45:27;;;;;;;0.93;0.87;;;18.70;99.90;;;;;;5067067;28;20872;-77
2023/06/27 12:47:54;;;;;;;1.30;0.97;;;18.80;99.90;;;;;;5066825;28;20700;-77
2023/06/27 12:50:21;;;;;;;2.13;0.80;;;18.80;99.90;;;;;;5067748;28;20223;-77
2023/06/27 12:52:49;;;;;;;0.87;0.80;;;18.80;99.90;;;;;;5067406;28;20204;-77
2023/06/27 12:55:17;;;;;;;2.00;0.90;;;18.90;99.90;;;;;;5066898;28;20310;-76
2023/06/27 12:57:44;;;;;;;1.40;0.77;;;19.10;99.90;;;;;;5067157;28;20231;-76
2023/06/27 13:00:12;;;;;;;1.03;0.93;;;19.50;99.90;;;;;;5067145;28;20203;-76
2023/06/27 13:02:39;;;;;;;2.50;1.17;;;19.90;99.90;;;;;;5067198;28;20760;-76
2023/06/27 13:05:08;;;;;;;1.43;1.00;;;20.40;99.90;;;;;;5067319;28;20341;-77
2023/06/27 13:07:35;;;;;;;3.23;1.70;;;21.00;99.90;;;;;;5067015;28;20740;-76
2023/06/27 13:10:04;;;;;;;2.80;2.23;;;21.10;99.90;;;;;;5067318;28;20290;-76
2023/06/27 13:12:31;;;;;;;0.90;0.90;;;20.90;99.90;;;;;;5067291;28;20203;-77
2023/06/27 13:14:58;;;;;;;2.33;0.77;;;20.90;99.90;;;;;;5067642;28;20649;-77
2023/06/27 13:17:25;;;;;;;1.40;0.80;;;21.40;99.90;;;;;;5066760;28;20707;-77